createdAt,value
2023-01-03T00:01:32.381Z,100242.00
2023-01-03T00:03:05.927Z,100248.00
2023-01-03T00:04:42.237Z,100245.00
2023-01-03T00:06:20.821Z,100239.00
2023-01-03T00:07:54.452Z,100241.00
2023-01-03T00:09:27.625Z,100233.00
2023-01-03T00:10:59.821Z,100235.00
2023-01-03T00:12:33.006Z,100243.00
2023-01-03T00:14:05.173Z,100234.00
2023-01-03T00:15:39.636Z,100242.00
2023-01-03T00:17:14.880Z,100245.00
2023-01-03T00:18:47.215Z,100246.00
2023-01-03T00:20:20.693Z,100236.00
2023-01-03T00:21:54.471Z,100239.00
2023-01-03T00:23:27.590Z,100233.00
2023-01-03T00:24:59.963Z,100246.00
2023-01-03T00:26:33.623Z,100231.00
2023-01-03T00:28:07.056Z,100242.00
2023-01-03T00:29:39.301Z,100243.00
2023-01-03T00:31:13.905Z,100247.00
2023-01-03T00:32:48.589Z,100245.00
2023-01-03T00:34:22.214Z,100239.00
2023-01-03T00:35:54.431Z,100241.00
2023-01-03T00:37:27.639Z,100246.00
2023-01-03T00:39:00.969Z,100243.00
2023-01-03T00:40:34.148Z,100250.00
2023-01-03T00:42:08.311Z,100237.00
2023-01-03T00:43:42.612Z,100248.00
2023-01-03T00:45:19.766Z,100238.00
2023-01-03T00:46:53.773Z,100249.00
2023-01-03T00:48:28.463Z,100241.00
2023-01-03T00:50:02.007Z,100247.00
2023-01-03T00:51:39.100Z,100246.00
2023-01-03T00:53:11.274Z,100246.00
2023-01-03T00:54:44.383Z,100254.00
2023-01-03T00:56:21.614Z,100249.00
2023-01-03T00:57:54.718Z,100261.00
2023-01-03T00:59:27.922Z,100244.00
2023-01-03T01:01:07.743Z,100246.00
2023-01-03T01:02:41.194Z,100247.00
2023-01-03T01:04:21.708Z,100247.00
2023-01-03T01:05:54.009Z,100261.00
2023-01-03T01:07:27.176Z,100255.00
2023-01-03T01:09:03.118Z,100256.00
2023-01-03T01:10:36.337Z,100260.00
2023-01-03T01:12:09.808Z,100271.00
2023-01-03T01:13:43.658Z,100267.00
2023-01-03T01:15:17.420Z,100272.00
2023-01-03T01:16:53.556Z,100277.00
2023-01-03T01:18:26.673Z,100270.00
2023-01-03T01:20:01.202Z,100272.00
2023-01-03T01:21:34.459Z,100272.00
2023-01-03T01:23:07.625Z,100276.00
2023-01-03T01:24:41.650Z,100276.00
2023-01-03T01:26:17.787Z,100272.00
2023-01-03T01:27:50.053Z,100276.00
2023-01-03T01:29:23.439Z,100277.00
2023-01-03T01:30:59.598Z,100272.00
2023-01-03T01:32:32.847Z,100281.00
2023-01-03T01:34:06.125Z,100277.00
2023-01-03T01:35:40.759Z,100276.00
2023-01-03T01:37:13.936Z,100287.00
2023-01-03T01:38:48.956Z,100286.00
2023-01-03T01:40:22.276Z,100292.00
2023-01-03T01:42:19.789Z,100288.00
2023-01-03T01:44:16.430Z,100288.00
2023-01-03T01:45:49.938Z,100290.00
2023-01-03T01:47:34.607Z,100290.00
2023-01-03T01:49:19.248Z,100293.00
2023-01-03T01:50:57.841Z,100300.00
2023-01-03T01:52:37.805Z,100307.00
2023-01-03T01:54:11.917Z,100307.00
2023-01-03T01:55:51.933Z,100308.00
2023-01-03T01:57:27.064Z,100310.00
2023-01-03T01:59:00.405Z,100307.00
2023-01-03T02:00:34.543Z,100307.00
2023-01-03T02:02:09.668Z,100312.00
2023-01-03T02:03:47.515Z,100311.00
2023-01-03T02:05:23.545Z,100319.00
2023-01-03T02:06:59.797Z,100321.00
2023-01-03T02:08:33.063Z,100318.00
2023-01-03T02:10:08.136Z,100330.00
2023-01-03T02:12:15.142Z,100333.00
2023-01-03T02:13:59.890Z,100333.00
2023-01-03T02:15:51.569Z,100339.00
2023-01-03T02:17:38.781Z,100336.00
2023-01-03T02:19:53.143Z,100331.00
2023-01-03T02:22:11.249Z,100339.00
2023-01-03T02:24:47.578Z,100338.00
2023-01-03T02:26:52.727Z,100341.00
2023-01-03T02:29:29.003Z,100340.00
2023-01-03T02:31:12.101Z,100345.00
2023-01-03T02:32:52.415Z,100345.00
2023-01-03T02:34:36.413Z,100346.00
2023-01-03T02:36:21.854Z,100343.00
2023-01-03T02:38:03.005Z,100341.00
2023-01-03T02:39:47.512Z,100341.00
2023-01-03T02:41:34.374Z,100343.00
2023-01-03T02:43:14.916Z,100343.00
2023-01-03T02:44:59.080Z,100347.00
2023-01-03T02:46:44.530Z,100358.00
2023-01-03T02:48:29.423Z,100350.00
2023-01-03T02:50:04.403Z,100354.00
2023-01-03T02:51:40.226Z,100350.00
2023-01-03T02:53:20.306Z,100354.00
2023-01-03T02:55:00.780Z,100353.00
2023-01-03T02:56:40.472Z,100352.00
2023-01-03T02:58:20.227Z,100351.00
2023-01-03T02:59:59.157Z,100354.00
2023-01-03T03:01:36.894Z,100355.00
2023-01-03T03:03:16.274Z,100344.00
2023-01-03T03:04:55.543Z,100344.00
2023-01-03T03:06:37.068Z,100348.00
2023-01-03T03:08:10.220Z,100347.00
2023-01-03T03:09:57.433Z,100348.00
2023-01-03T03:11:53.580Z,100355.00
2023-01-03T03:13:37.183Z,100354.00
2023-01-03T03:15:16.733Z,100356.00
2023-01-03T03:16:53.149Z,100356.00
2023-01-03T03:18:41.189Z,100349.00
2023-01-03T03:20:35.711Z,100363.00
2023-01-03T03:22:36.951Z,100355.00
2023-01-03T03:24:32.450Z,100351.00
2023-01-03T03:26:11.990Z,100345.00
2023-01-03T03:28:10.962Z,100348.00
2023-01-03T03:29:43.491Z,100344.00
2023-01-03T03:31:23.117Z,100346.00
2023-01-03T03:33:05.763Z,100351.00
2023-01-03T03:34:39.958Z,100351.00
2023-01-03T03:36:20.585Z,100354.00
2023-01-03T03:37:58.273Z,100351.00
2023-01-03T03:39:51.594Z,100357.00
2023-01-03T03:41:54.534Z,100358.00
2023-01-03T03:43:55.405Z,100368.00
2023-01-03T03:45:51.075Z,100370.00
2023-01-03T03:47:34.715Z,100369.00
2023-01-03T03:49:32.691Z,100366.00
2023-01-03T03:51:16.501Z,100362.00
2023-01-03T03:52:57.571Z,100367.00
2023-01-03T03:54:37.157Z,100373.00
2023-01-03T03:56:16.338Z,100371.00
2023-01-03T03:58:00.423Z,100368.00
2023-01-03T03:59:35.849Z,100365.00
2023-01-03T04:01:17.460Z,100368.00
2023-01-03T04:02:51.210Z,100371.00
2023-01-03T04:04:33.836Z,100364.00
2023-01-03T04:06:14.853Z,100375.00
2023-01-03T04:07:48.527Z,100364.00
2023-01-03T04:09:21.008Z,100372.00
2023-01-03T04:11:05.290Z,100374.00
2023-01-03T04:12:38.791Z,100366.00
2023-01-03T04:14:11.876Z,100369.00
2023-01-03T04:15:45.156Z,100369.00
2023-01-03T04:17:18.520Z,100365.00
2023-01-03T04:18:51.745Z,100369.00
2023-01-03T04:20:27.070Z,100364.00
2023-01-03T04:22:00.172Z,100372.00
2023-01-03T04:23:32.337Z,100370.00
2023-01-03T04:25:06.470Z,100372.00
2023-01-03T04:26:38.888Z,100371.00
2023-01-03T04:28:12.147Z,100373.00
2023-01-03T04:29:45.334Z,100365.00
2023-01-03T04:31:17.551Z,100370.00
2023-01-03T04:32:50.690Z,100361.00
2023-01-03T04:34:23.978Z,100362.00
2023-01-03T04:35:57.670Z,100360.00
2023-01-03T04:37:31.484Z,100371.00
2023-01-03T04:39:04.925Z,100373.00
2023-01-03T04:40:39.624Z,100367.00
2023-01-03T04:42:27.236Z,100379.00
2023-01-03T04:44:02.238Z,100375.00
2023-01-03T04:45:35.850Z,100368.00
2023-01-03T04:47:09.002Z,100372.00
2023-01-03T04:48:41.628Z,100370.00
2023-01-03T04:50:14.679Z,100366.00
2023-01-03T04:51:49.143Z,100371.00
2023-01-03T04:53:22.907Z,100368.00
2023-01-03T04:54:56.246Z,100379.00
2023-01-03T04:56:30.857Z,100377.00
2023-01-03T04:58:03.954Z,100373.00
2023-01-03T04:59:38.047Z,100365.00
2023-01-03T05:01:13.337Z,100379.00
2023-01-03T05:02:46.576Z,100374.00
2023-01-03T05:04:20.545Z,100372.00
2023-01-03T05:05:52.772Z,100379.00
2023-01-03T05:07:28.625Z,100381.00
2023-01-03T05:09:01.731Z,100375.00
2023-01-03T05:10:34.648Z,100371.00
2023-01-03T05:12:08.195Z,100372.00
2023-01-03T05:13:41.545Z,100382.00
2023-01-03T05:15:14.635Z,100376.00
2023-01-03T05:16:47.901Z,100378.00
2023-01-03T05:18:21.151Z,100391.00
2023-01-03T05:20:11.692Z,100396.00
2023-01-03T05:22:03.226Z,100392.00
2023-01-03T05:23:55.532Z,100390.00
2023-01-03T05:25:46.411Z,100392.00
2023-01-03T05:27:19.797Z,100393.00
2023-01-03T05:28:55.807Z,100393.00
2023-01-03T05:30:29.566Z,100396.00
2023-01-03T05:32:02.882Z,100397.00
2023-01-03T05:33:38.841Z,100388.00
2023-01-03T05:35:12.003Z,100390.00
2023-01-03T05:36:45.301Z,100394.00
2023-01-03T05:38:19.060Z,100381.00
2023-01-03T05:39:53.501Z,100380.00
2023-01-03T05:41:44.178Z,100395.00
2023-01-03T05:43:18.267Z,100391.00
2023-01-03T05:44:51.550Z,100399.00
2023-01-03T05:46:24.716Z,100400.00
2023-01-03T05:47:59.168Z,100399.00
2023-01-03T05:49:33.435Z,100393.00
2023-01-03T05:51:06.869Z,100400.00
2023-01-03T05:52:39.994Z,100396.00
2023-01-03T05:54:16.249Z,100401.00
2023-01-03T05:55:50.752Z,100402.00
2023-01-03T05:57:23.897Z,100403.00
2023-01-03T05:58:56.956Z,100397.00
2023-01-03T06:00:29.513Z,100400.00
2023-01-03T06:02:02.961Z,100394.00
2023-01-03T06:03:36.106Z,100395.00
2023-01-03T06:05:10.414Z,100398.00
2023-01-03T06:06:43.562Z,100400.00
2023-01-03T06:08:16.703Z,100399.00
2023-01-03T06:09:49.876Z,100389.00
2023-01-03T06:11:24.294Z,100400.00
2023-01-03T06:12:57.625Z,100396.00
2023-01-03T06:14:30.689Z,100400.00
2023-01-03T06:16:34.336Z,100391.00
2023-01-03T06:18:07.638Z,100398.00
2023-01-03T06:19:41.666Z,100405.00
2023-01-03T06:21:13.846Z,100389.00
2023-01-03T06:22:47.542Z,100397.00
2023-01-03T06:24:21.221Z,100399.00
2023-01-03T06:25:54.300Z,100401.00
2023-01-03T06:27:28.786Z,100404.00
2023-01-03T06:29:01.958Z,100406.00
2023-01-03T06:30:35.180Z,100396.00
2023-01-03T06:32:10.045Z,100402.00
2023-01-03T06:33:43.685Z,100410.00
2023-01-03T06:35:16.915Z,100403.00
2023-01-03T06:36:50.026Z,100419.00
2023-01-03T06:38:23.239Z,100414.00
2023-01-03T06:39:56.342Z,100409.00
2023-01-03T06:41:29.680Z,100408.00
2023-01-03T06:43:03.403Z,100412.00
2023-01-03T06:44:36.555Z,100413.00
2023-01-03T06:46:30.633Z,100406.00
2023-01-03T06:48:26.120Z,100410.00
2023-01-03T06:50:13.343Z,100407.00
2023-01-03T06:52:07.937Z,100418.00
2023-01-03T06:53:44.218Z,100413.00
2023-01-03T06:55:18.433Z,100416.00
2023-01-03T06:56:52.352Z,100413.00
2023-01-03T06:58:27.110Z,100416.00
2023-01-03T07:00:00.260Z,100414.00
2023-01-03T07:01:33.528Z,100418.00
2023-01-03T07:03:11.175Z,100419.00
2023-01-03T07:04:45.679Z,100420.00
2023-01-03T07:06:18.985Z,100416.00
2023-01-03T07:07:52.095Z,100411.00
2023-01-03T07:09:25.276Z,100418.00
2023-01-03T07:10:59.613Z,100419.00
2023-01-03T07:12:50.627Z,100415.00
2023-01-03T07:14:25.169Z,100420.00
2023-01-03T07:15:58.459Z,100425.00
2023-01-03T07:17:31.585Z,100421.00
2023-01-03T07:19:05.906Z,100417.00
2023-01-03T07:20:43.193Z,100423.00
2023-01-03T07:22:16.378Z,100430.00
2023-01-03T07:23:48.547Z,100430.00
2023-01-03T07:25:21.884Z,100422.00
2023-01-03T07:26:55.207Z,100424.00
2023-01-03T07:28:28.486Z,100434.00
2023-01-03T07:30:03.009Z,100439.00
2023-01-03T07:31:40.290Z,100435.00
2023-01-03T07:33:16.139Z,100439.00
2023-01-03T07:34:50.263Z,100445.00
2023-01-03T07:36:24.132Z,100443.00
2023-01-03T07:37:56.369Z,100442.00
2023-01-03T07:39:29.509Z,100437.00
2023-01-03T07:41:05.703Z,100444.00
2023-01-03T07:42:56.377Z,100434.00
2023-01-03T07:44:29.415Z,100460.00
2023-01-03T07:46:10.689Z,100451.00
2023-01-03T07:47:45.388Z,100446.00
2023-01-03T07:49:18.462Z,100451.00
2023-01-03T07:50:51.634Z,100454.00
2023-01-03T07:52:24.704Z,100452.00
2023-01-03T07:53:57.876Z,100447.00
2023-01-03T07:55:31.020Z,100460.00
2023-01-03T07:57:04.315Z,100444.00
2023-01-03T07:58:38.376Z,100447.00
2023-01-03T08:00:13.373Z,100454.00
2023-01-03T08:01:59.764Z,100455.00
2023-01-03T08:03:33.288Z,100450.00
2023-01-03T08:05:07.512Z,100450.00
2023-01-03T08:06:40.688Z,100447.00
2023-01-03T08:08:14.365Z,100442.00
2023-01-03T08:10:04.980Z,100450.00
2023-01-03T08:11:55.942Z,100452.00
2023-01-03T08:13:29.058Z,100464.00
2023-01-03T08:15:02.117Z,100460.00
2023-01-03T08:16:35.537Z,100466.00
2023-01-03T08:18:10.098Z,100467.00
2023-01-03T08:19:45.684Z,100455.00
2023-01-03T08:21:19.744Z,100459.00
2023-01-03T08:22:52.892Z,100465.00
2023-01-03T08:24:26.017Z,100450.00
2023-01-03T08:26:03.793Z,100459.00
2023-01-03T08:27:36.892Z,100461.00
2023-01-03T08:29:10.092Z,100453.00
2023-01-03T08:30:48.496Z,100458.00
2023-01-03T08:32:22.599Z,100454.00
2023-01-03T08:34:06.364Z,100452.00
2023-01-03T08:35:49.612Z,100453.00
2023-01-03T08:37:22.692Z,100458.00
2023-01-03T08:39:01.135Z,100457.00
2023-01-03T08:40:42.147Z,100461.00
2023-01-03T08:42:20.635Z,100465.00
2023-01-03T08:43:55.467Z,100456.00
2023-01-03T08:45:29.195Z,100453.00
2023-01-03T08:47:08.564Z,100461.00
2023-01-03T08:48:42.835Z,100459.00
2023-01-03T08:50:17.347Z,100457.00
2023-01-03T08:51:50.452Z,100457.00
2023-01-03T08:53:24.349Z,100466.00
2023-01-03T08:54:57.615Z,100462.00
2023-01-03T08:56:30.733Z,100460.00
2023-01-03T08:58:03.814Z,100447.00
2023-01-03T08:59:37.010Z,100456.00
2023-01-03T09:01:11.322Z,100455.00
2023-01-03T09:02:44.582Z,100460.00
2023-01-03T09:04:18.349Z,100459.00
2023-01-03T09:05:52.903Z,100461.00
2023-01-03T09:07:26.030Z,100458.00
2023-01-03T09:08:59.303Z,100466.00
2023-01-03T09:10:32.884Z,100455.00
2023-01-03T09:12:06.704Z,100452.00
2023-01-03T09:13:40.820Z,100457.00
2023-01-03T09:15:13.929Z,100461.00
2023-01-03T09:16:49.202Z,100445.00
2023-01-03T09:18:22.759Z,100460.00
2023-01-03T09:19:55.795Z,100452.00
2023-01-03T09:21:30.763Z,100459.00
2023-01-03T09:23:03.709Z,100447.00
2023-01-03T09:24:36.905Z,100445.00
2023-01-03T09:26:10.386Z,100451.00
2023-01-03T09:27:47.732Z,100452.00
2023-01-03T09:29:20.829Z,100442.00
2023-01-03T09:30:54.703Z,100454.00
2023-01-03T09:32:28.053Z,100442.00
2023-01-03T09:34:02.638Z,100447.00
2023-01-03T09:35:35.712Z,100444.00
2023-01-03T09:37:10.173Z,100447.00
2023-01-03T09:38:43.272Z,100454.00
2023-01-03T09:40:17.253Z,100459.00
2023-01-03T09:42:11.112Z,100464.00
2023-01-03T09:43:49.055Z,100456.00
2023-01-03T09:45:28.758Z,100463.00
2023-01-03T09:47:03.099Z,100455.00
2023-01-03T09:48:40.704Z,100461.00
2023-01-03T09:52:45.633Z,100462.00
2023-01-03T09:54:43.308Z,100467.00
2023-01-03T09:56:34.242Z,100465.00
2023-01-03T09:58:32.747Z,100462.00
2023-01-03T10:00:33.011Z,100465.00
2023-01-03T10:03:06.583Z,100459.00
2023-01-03T10:05:12.200Z,100464.00
2023-01-03T10:06:57.407Z,100462.00
2023-01-03T10:08:48.018Z,100464.00
2023-01-03T10:10:33.247Z,100456.00
2023-01-03T10:12:18.984Z,100453.00
2023-01-03T10:14:13.383Z,100438.00
2023-01-03T10:15:58.626Z,100452.00
2023-01-03T10:17:44.287Z,100451.00
2023-01-03T10:19:55.063Z,100456.00
2023-01-03T10:21:42.141Z,100457.00
2023-01-03T10:23:16.227Z,100447.00
2023-01-03T10:24:59.781Z,100451.00
2023-01-03T10:26:34.806Z,100454.00
2023-01-03T10:28:17.072Z,100450.00
2023-01-03T10:29:54.795Z,100459.00
2023-01-03T10:31:48.011Z,100461.00
2023-01-03T10:33:33.940Z,100457.00
2023-01-03T10:35:21.624Z,100455.00
2023-01-03T10:36:56.389Z,100463.00
2023-01-03T10:38:30.827Z,100464.00
2023-01-03T10:40:07.212Z,100452.00
2023-01-03T10:41:46.019Z,100454.00
2023-01-03T10:43:29.340Z,100464.00
2023-01-03T10:45:05.914Z,100462.00
2023-01-03T10:46:53.490Z,100463.00
2023-01-03T10:48:59.963Z,100457.00
2023-01-03T10:50:31.001Z,100452.00
2023-01-03T10:52:11.205Z,100452.00
2023-01-03T10:53:44.793Z,100450.00
2023-01-03T10:55:20.964Z,100444.00
2023-01-03T10:56:54.273Z,100443.00
2023-01-03T10:58:36.171Z,100438.00
2023-01-03T11:00:26.402Z,100442.00
2023-01-03T11:02:03.354Z,100439.00
2023-01-03T11:03:39.881Z,100439.00
2023-01-03T11:05:20.360Z,100437.00
2023-01-03T11:07:03.827Z,100422.00
2023-01-03T11:08:45.354Z,100433.00
2023-01-03T11:10:20.537Z,100423.00
2023-01-03T11:12:03.263Z,100418.00
2023-01-03T11:13:40.776Z,100427.00
2023-01-03T11:15:19.544Z,100426.00
2023-01-03T11:17:00.148Z,100427.00
2023-01-03T11:18:33.889Z,100430.00
2023-01-03T11:20:20.040Z,100429.00
2023-01-03T11:22:02.202Z,100433.00
2023-01-03T11:23:59.108Z,100429.00
2023-01-03T11:25:49.788Z,100434.00
2023-01-03T11:27:45.258Z,100427.00
2023-01-03T11:30:02.226Z,100413.00
2023-01-03T11:31:51.213Z,100413.00
2023-01-03T11:33:51.844Z,100410.00
2023-01-03T11:35:46.664Z,100407.00
2023-01-03T11:37:32.368Z,100406.00
2023-01-03T11:39:27.197Z,100405.00
2023-01-03T11:41:19.442Z,100403.00
2023-01-03T11:43:06.501Z,100395.00
2023-01-03T11:45:12.235Z,100403.00
2023-01-03T11:47:07.355Z,100394.00
2023-01-03T11:49:06.061Z,100396.00
2023-01-03T11:50:54.159Z,100405.00
2023-01-03T11:52:39.713Z,100396.00
2023-01-03T11:54:44.523Z,100392.00
2023-01-03T11:56:29.902Z,100385.00
2023-01-03T11:58:23.009Z,100386.00
2023-01-03T12:00:12.974Z,100384.00
2023-01-03T12:02:25.952Z,100388.00
2023-01-03T12:04:24.528Z,100381.00
2023-01-03T12:06:11.924Z,100381.00
2023-01-03T12:08:05.643Z,100385.00
2023-01-03T12:09:51.104Z,100374.00
2023-01-03T12:11:47.651Z,100373.00
2023-01-03T12:13:33.010Z,100376.00
2023-01-03T12:15:19.298Z,100367.00
2023-01-03T12:16:57.966Z,100369.00
2023-01-03T12:18:45.297Z,100368.00
2023-01-03T12:20:24.433Z,100368.00
2023-01-03T12:22:09.248Z,100369.00
2023-01-03T12:23:46.600Z,100364.00
2023-01-03T12:25:28.143Z,100363.00
2023-01-03T12:27:19.546Z,100362.00
2023-01-03T12:29:04.860Z,100363.00
2023-01-03T12:30:45.564Z,100357.00
2023-01-03T12:32:26.260Z,100353.00
2023-01-03T12:34:06.186Z,100351.00
2023-01-03T12:35:48.707Z,100348.00
2023-01-03T12:37:27.564Z,100348.00
2023-01-03T12:39:24.916Z,100355.00
2023-01-03T12:41:14.671Z,100360.00
2023-01-03T12:43:03.781Z,100345.00
2023-01-03T12:44:41.854Z,100357.00
2023-01-03T12:46:20.281Z,100349.00
2023-01-03T12:47:59.498Z,100348.00
2023-01-03T12:49:42.164Z,100345.00
2023-01-03T12:51:21.299Z,100339.00
2023-01-03T12:53:04.684Z,100336.00
2023-01-03T12:54:45.440Z,100337.00
2023-01-03T12:56:48.340Z,100339.00
2023-01-03T12:58:51.329Z,100330.00
2023-01-03T13:00:43.335Z,100339.00
2023-01-03T13:02:30.583Z,100332.00
2023-01-03T13:04:22.682Z,100314.00
2023-01-03T13:06:02.899Z,100324.00
2023-01-03T13:07:37.708Z,100334.00
2023-01-03T13:09:20.620Z,100325.00
2023-01-03T13:11:00.107Z,100323.00
2023-01-03T13:12:35.927Z,100323.00
2023-01-03T13:14:21.831Z,100318.00
2023-01-03T13:15:55.702Z,100317.00
2023-01-03T13:17:44.545Z,100310.00
2023-01-03T13:19:57.867Z,100305.00
2023-01-03T13:22:03.006Z,100313.00
2023-01-03T13:23:58.928Z,100301.00
2023-01-03T13:25:39.950Z,100307.00
2023-01-03T13:27:36.991Z,100315.00
2023-01-03T13:29:45.366Z,100306.00
2023-01-03T13:32:04.573Z,100307.00
2023-01-03T13:33:55.090Z,100314.00
2023-01-03T13:35:36.535Z,100304.00
2023-01-03T13:37:21.050Z,100309.00
2023-01-03T13:38:54.687Z,100303.00
2023-01-03T13:41:15.538Z,100313.00
2023-01-03T13:42:29.876Z,100305.00
2023-01-03T13:44:16.623Z,100311.00
2023-01-03T13:45:59.377Z,100307.00
2023-01-03T13:47:41.729Z,100307.00
2023-01-03T13:49:21.356Z,100304.00
2023-01-03T13:51:27.614Z,100312.00
2023-01-03T13:53:05.191Z,100311.00
2023-01-03T13:54:58.957Z,100308.00
2023-01-03T13:57:02.844Z,100296.00
2023-01-03T13:58:47.372Z,100305.00
2023-01-03T14:00:24.278Z,100302.00
2023-01-03T14:02:48.729Z,100307.00
2023-01-03T14:04:56.567Z,100303.00
2023-01-03T14:07:10.740Z,100305.00
2023-01-03T14:09:22.150Z,100300.00
2023-01-03T14:11:17.502Z,100309.00
2023-01-03T14:13:31.547Z,100306.00
2023-01-03T14:15:25.266Z,100308.00
2023-01-03T14:17:02.912Z,100316.00
2023-01-03T14:18:40.105Z,100316.00
2023-01-03T14:20:27.969Z,100300.00
2023-01-03T14:22:27.249Z,100317.00
2023-01-03T14:24:01.865Z,100314.00
2023-01-03T14:25:38.204Z,100318.00
2023-01-03T14:27:17.561Z,100317.00
2023-01-03T14:28:54.788Z,100325.00
2023-01-03T14:30:33.686Z,100333.00
2023-01-03T14:32:22.865Z,100330.00
2023-01-03T14:34:01.386Z,100331.00
2023-01-03T14:35:40.775Z,100324.00
2023-01-03T14:37:17.682Z,100319.00
2023-01-03T14:38:54.367Z,100335.00
2023-01-03T14:40:27.557Z,100337.00
2023-01-03T14:42:04.218Z,100333.00
2023-01-03T14:43:42.800Z,100336.00
2023-01-03T14:45:19.541Z,100334.00
2023-01-03T14:46:57.927Z,100333.00
2023-01-03T14:48:31.847Z,100339.00
2023-01-03T14:50:12.433Z,100332.00
2023-01-03T14:51:45.502Z,100333.00
2023-01-03T14:53:19.011Z,100324.00
2023-01-03T14:55:03.442Z,100323.00
2023-01-03T14:56:38.525Z,100330.00
2023-01-03T14:58:33.790Z,100331.00
2023-01-03T15:00:13.287Z,100334.00
2023-01-03T15:01:47.626Z,100324.00
2023-01-03T15:03:21.970Z,100326.00
2023-01-03T15:04:57.940Z,100330.00
2023-01-03T15:06:34.021Z,100323.00
2023-01-03T15:08:23.519Z,100322.00
2023-01-03T15:10:16.825Z,100333.00
2023-01-03T15:11:59.188Z,100326.00
2023-01-03T15:13:36.979Z,100335.00
2023-01-03T15:15:28.149Z,100335.00
2023-01-03T15:17:06.245Z,100330.00
2023-01-03T15:18:42.535Z,100337.00
2023-01-03T15:20:20.270Z,100336.00
2023-01-03T15:22:09.375Z,100346.00
2023-01-03T15:23:46.934Z,100348.00
2023-01-03T15:25:32.392Z,100354.00
2023-01-03T15:27:34.405Z,100347.00
2023-01-03T15:29:14.988Z,100357.00
2023-01-03T15:30:50.014Z,100342.00
2023-01-03T15:32:23.206Z,100348.00
2023-01-03T15:34:02.646Z,100350.00
2023-01-03T15:35:40.550Z,100346.00
2023-01-03T15:37:23.836Z,100353.00
2023-01-03T15:38:57.670Z,100343.00
2023-01-03T15:40:32.718Z,100359.00
2023-01-03T15:42:44.754Z,100368.00
2023-01-03T15:44:23.766Z,100372.00
2023-01-03T15:46:04.485Z,100370.00
2023-01-03T15:47:37.742Z,100381.00
2023-01-03T15:49:16.930Z,100369.00
2023-01-03T15:50:53.402Z,100372.00
2023-01-03T15:52:28.643Z,100368.00
2023-01-03T15:54:02.873Z,100362.00
2023-01-03T15:55:36.915Z,100369.00
2023-01-03T15:57:16.271Z,100366.00
2023-01-03T15:58:52.835Z,100368.00
2023-01-03T16:00:27.122Z,100370.00
2023-01-03T16:02:01.295Z,100370.00
2023-01-03T16:03:36.875Z,100370.00
2023-01-03T16:05:22.207Z,100370.00
2023-01-03T16:07:01.107Z,100375.00
2023-01-03T16:08:38.546Z,100372.00
2023-01-03T16:10:12.972Z,100367.00
2023-01-03T16:11:47.195Z,100371.00
2023-01-03T16:13:21.045Z,100375.00
2023-01-03T16:14:55.745Z,100371.00
2023-01-03T16:16:36.003Z,100371.00
2023-01-03T16:18:13.542Z,100367.00
2023-01-03T16:19:46.975Z,100364.00
2023-01-03T16:21:20.803Z,100370.00
2023-01-03T16:23:00.873Z,100357.00
2023-01-03T16:24:36.160Z,100366.00
2023-01-03T16:26:09.888Z,100360.00
2023-01-03T16:27:43.420Z,100354.00
2023-01-03T16:29:17.228Z,100352.00
2023-01-03T16:31:04.486Z,100361.00
2023-01-03T16:32:37.849Z,100367.00
2023-01-03T16:34:25.363Z,100360.00
2023-01-03T16:36:02.507Z,100353.00
2023-01-03T16:37:35.869Z,100342.00
2023-01-03T16:39:17.875Z,100331.00
2023-01-03T16:40:54.391Z,100338.00
2023-01-03T16:42:28.324Z,100344.00
2023-01-03T16:44:03.450Z,100339.00
2023-01-03T16:45:43.530Z,100346.00
2023-01-03T16:47:22.477Z,100348.00
2023-01-03T16:49:00.865Z,100348.00
2023-01-03T16:50:40.077Z,100342.00
2023-01-03T16:52:18.879Z,100345.00
2023-01-03T16:54:03.926Z,100349.00
2023-01-03T16:55:39.948Z,100344.00
2023-01-03T16:57:19.896Z,100345.00
2023-01-03T16:58:53.592Z,100355.00
2023-01-03T17:00:30.590Z,100356.00
2023-01-03T17:02:04.036Z,100359.00
2023-01-03T17:03:41.809Z,100352.00
2023-01-03T17:05:16.441Z,100363.00
2023-01-03T17:06:49.921Z,100357.00
2023-01-03T17:08:27.307Z,100369.00
2023-01-03T17:10:09.187Z,100364.00
2023-01-03T17:11:42.702Z,100366.00
2023-01-03T17:13:28.338Z,100373.00
2023-01-03T17:15:01.452Z,100364.00
2023-01-03T17:16:35.473Z,100358.00
2023-01-03T17:18:18.328Z,100370.00
2023-01-03T17:20:07.491Z,100365.00
2023-01-03T17:21:47.937Z,100351.00
2023-01-03T17:23:25.590Z,100343.00
2023-01-03T17:24:58.731Z,100356.00
2023-01-03T17:26:35.560Z,100335.00
2023-01-03T17:28:11.872Z,100356.00
2023-01-03T17:29:50.606Z,100343.00
2023-01-03T17:31:26.097Z,100344.00
2023-01-03T17:33:04.652Z,100349.00
2023-01-03T17:34:38.909Z,100345.00
2023-01-03T17:36:15.362Z,100350.00
2023-01-03T17:38:24.175Z,100357.00
2023-01-03T17:39:43.392Z,100356.00
2023-01-03T17:41:20.556Z,100353.00
2023-01-03T17:42:56.723Z,100342.00
2023-01-03T17:44:31.754Z,100357.00
2023-01-03T17:46:36.930Z,100358.00
2023-01-03T17:48:29.964Z,100360.00
2023-01-03T17:50:03.352Z,100369.00
2023-01-03T17:51:36.694Z,100365.00
2023-01-03T17:53:12.315Z,100367.00
2023-01-03T17:54:45.499Z,100363.00
2023-01-03T17:56:21.475Z,100363.00
2023-01-03T17:57:55.421Z,100363.00
2023-01-03T17:59:29.596Z,100362.00
2023-01-03T18:01:03.915Z,100358.00
2023-01-03T18:02:40.556Z,100365.00
2023-01-03T18:04:13.958Z,100358.00
2023-01-03T18:05:47.311Z,100353.00
2023-01-03T18:07:25.348Z,100348.00
2023-01-03T18:08:59.346Z,100347.00
2023-01-03T18:10:43.753Z,100348.00
2023-01-03T18:12:22.025Z,100348.00
2023-01-03T18:13:55.113Z,100349.00
2023-01-03T18:15:31.222Z,100355.00
2023-01-03T18:17:04.315Z,100361.00
2023-01-03T18:18:38.828Z,100345.00
2023-01-03T18:20:15.411Z,100360.00
2023-01-03T18:21:49.175Z,100359.00
2023-01-03T18:23:28.386Z,100357.00
2023-01-03T18:25:01.803Z,100355.00
2023-01-03T18:26:37.832Z,100356.00
2023-01-03T18:28:12.838Z,100361.00
2023-01-03T18:29:45.939Z,100357.00
2023-01-03T18:31:20.573Z,100357.00
2023-01-03T18:32:53.902Z,100352.00
2023-01-03T18:34:29.367Z,100346.00
2023-01-03T18:36:02.986Z,100358.00
2023-01-03T18:37:38.510Z,100353.00
2023-01-03T18:39:16.607Z,100351.00
2023-01-03T18:40:49.696Z,100355.00
2023-01-03T18:43:00.130Z,100345.00
2023-01-03T18:44:33.436Z,100344.00
2023-01-03T18:46:14.945Z,100346.00
2023-01-03T18:47:48.262Z,100353.00
2023-01-03T18:49:21.488Z,100337.00
2023-01-03T18:50:59.206Z,100335.00
2023-01-03T18:52:38.147Z,100338.00
2023-01-03T18:54:20.492Z,100332.00
2023-01-03T18:55:53.661Z,100321.00
2023-01-03T18:57:27.880Z,100321.00
2023-01-03T18:59:05.911Z,100325.00
2023-01-03T19:00:38.998Z,100334.00
2023-01-03T19:02:15.828Z,100335.00
2023-01-03T19:03:51.040Z,100326.00
2023-01-03T19:05:24.582Z,100331.00